createdAt,value
2023-05-02T00:02:25.514Z,3.50
2023-05-02T00:04:53.377Z,3.17
2023-05-02T00:07:21.519Z,4.00
2023-05-02T00:09:49.104Z,3.60
2023-05-02T00:12:17.847Z,3.60
2023-05-02T00:14:48.414Z,3.57
2023-05-02T00:17:22.843Z,3.70
2023-05-02T00:19:54.008Z,3.63
2023-05-02T00:22:21.789Z,3.80
2023-05-02T00:24:49.326Z,3.60
2023-05-02T00:27:17.360Z,3.40
2023-05-02T00:29:44.928Z,3.80
2023-05-02T00:32:15.449Z,4.00
2023-05-02T00:34:43.033Z,4.20
2023-05-02T00:37:10.694Z,4.70
2023-05-02T00:39:38.320Z,3.83
2023-05-02T00:42:06.307Z,4.30
2023-05-02T00:44:34.022Z,4.47
2023-05-02T00:47:02.092Z,4.60
2023-05-02T00:49:34.074Z,4.83
2023-05-02T00:52:04.630Z,4.30
2023-05-02T00:54:32.274Z,4.80
2023-05-02T00:56:59.940Z,4.93
2023-05-02T00:59:27.530Z,4.63
2023-05-02T01:02:07.389Z,4.90
2023-05-02T01:04:59.223Z,5.30
2023-05-02T01:07:38.423Z,4.57
2023-05-02T01:10:09.271Z,5.23
2023-05-02T01:12:50.366Z,5.03
2023-05-02T01:15:22.366Z,5.07
2023-05-02T01:17:52.991Z,5.13
2023-05-02T01:20:24.198Z,5.73
2023-05-02T01:22:52.300Z,5.03
2023-05-02T01:25:36.965Z,5.50
2023-05-02T01:28:13.045Z,5.57
2023-05-02T01:30:45.911Z,5.33
2023-05-02T01:33:16.268Z,5.67
2023-05-02T01:35:46.486Z,5.30
2023-05-02T01:38:16.751Z,5.93
2023-05-02T01:40:46.987Z,6.23
2023-05-02T01:43:16.872Z,6.10
2023-05-02T01:45:47.211Z,6.67
2023-05-02T01:48:16.174Z,6.10
2023-05-02T01:50:46.294Z,7.00
2023-05-02T01:53:15.273Z,6.70
2023-05-02T01:55:45.808Z,6.67
2023-05-02T01:58:16.187Z,6.70
2023-05-02T02:00:47.839Z,7.40
2023-05-02T02:03:19.353Z,6.80
2023-05-02T02:05:48.587Z,7.07
2023-05-02T02:08:16.161Z,7.37
2023-05-02T02:10:49.877Z,7.40
2023-05-02T02:13:24.355Z,7.40
2023-05-02T02:15:57.780Z,7.83
2023-05-02T02:18:27.523Z,8.10
2023-05-02T02:20:56.014Z,8.30
2023-05-02T02:23:27.416Z,8.53
2023-05-02T02:25:56.726Z,8.80
2023-05-02T02:28:24.431Z,8.20
2023-05-02T02:30:53.296Z,7.77
2023-05-02T02:33:21.203Z,7.23
2023-05-02T02:35:54.764Z,7.70
2023-05-02T02:38:44.156Z,7.73
2023-05-02T02:41:32.228Z,7.87
2023-05-02T02:44:14.862Z,8.47
2023-05-02T02:46:58.237Z,9.00
2023-05-02T02:49:28.919Z,9.40
2023-05-02T02:52:21.246Z,9.60
2023-05-02T02:55:06.723Z,10.90
2023-05-02T02:57:49.157Z,12.00
2023-05-02T03:00:24.777Z,12.10
2023-05-02T03:02:53.877Z,14.03
2023-05-02T03:05:23.353Z,14.00
2023-05-02T03:07:51.880Z,15.73
2023-05-02T03:10:21.837Z,14.80
2023-05-02T03:12:49.588Z,15.20
2023-05-02T03:15:45.421Z,16.07
2023-05-02T03:18:13.072Z,15.80
2023-05-02T03:20:43.976Z,16.10
2023-05-02T03:23:11.599Z,16.77
2023-05-02T03:25:39.215Z,16.70
2023-05-02T03:28:06.786Z,19.13
2023-05-02T03:30:35.203Z,18.40
2023-05-02T03:33:04.727Z,19.87
2023-05-02T03:35:32.351Z,22.43
2023-05-02T03:38:02.825Z,21.77
2023-05-02T03:40:30.458Z,24.27
2023-05-02T03:42:58.102Z,23.57
2023-05-02T03:45:25.675Z,23.87
2023-05-02T03:47:53.311Z,23.83
2023-05-02T03:50:23.801Z,24.63
2023-05-02T03:52:51.383Z,22.80
2023-05-02T03:55:19.462Z,22.97
2023-05-02T03:57:47.165Z,23.50
2023-05-02T04:00:15.073Z,26.90
2023-05-02T04:02:42.840Z,24.57
2023-05-02T04:05:10.593Z,28.43
2023-05-02T04:07:38.295Z,29.90
2023-05-02T04:10:07.459Z,28.43
2023-05-02T04:12:35.112Z,30.10
2023-05-02T04:15:06.315Z,32.60
2023-05-02T04:17:40.214Z,31.67
2023-05-02T04:20:09.055Z,32.43
2023-05-02T04:22:36.874Z,31.70
2023-05-02T04:25:04.752Z,34.27
2023-05-02T04:27:32.628Z,36.40
2023-05-02T04:30:00.445Z,37.63
2023-05-02T04:32:28.386Z,38.40
2023-05-02T04:34:56.101Z,41.53
2023-05-02T04:37:23.948Z,39.57
2023-05-02T04:39:51.792Z,40.83
2023-05-02T04:42:19.424Z,41.40
2023-05-02T04:44:50.409Z,41.27
2023-05-02T04:47:20.713Z,40.23
2023-05-02T04:49:50.392Z,43.00
2023-05-02T04:52:18.657Z,41.27
2023-05-02T04:54:46.445Z,40.90
2023-05-02T04:57:16.871Z,41.83
2023-05-02T04:59:44.653Z,41.70
2023-05-02T05:02:13.226Z,42.10
2023-05-02T05:04:42.437Z,41.20
2023-05-02T05:07:10.164Z,41.33
2023-05-02T05:09:38.164Z,40.87
2023-05-02T05:12:05.849Z,40.53
2023-05-02T05:14:34.652Z,42.70
2023-05-02T05:17:02.292Z,41.23
2023-05-02T05:19:30.639Z,42.50
2023-05-02T05:21:58.334Z,41.27
2023-05-02T05:24:26.017Z,41.10
2023-05-02T05:26:53.718Z,42.23
2023-05-02T05:29:21.351Z,39.90
2023-05-02T05:31:51.657Z,42.53
2023-05-02T05:34:19.792Z,39.50
2023-05-02T05:36:47.640Z,42.20
2023-05-02T05:39:15.609Z,42.50
2023-05-02T05:41:43.261Z,39.83
2023-05-02T05:44:17.277Z,41.07
2023-05-02T05:46:44.868Z,43.70
2023-05-02T05:49:12.609Z,42.40
2023-05-02T05:51:42.386Z,40.80
2023-05-02T05:54:10.228Z,40.60
2023-05-02T05:56:41.062Z,41.33
2023-05-02T05:59:09.090Z,39.70
2023-05-02T06:01:36.646Z,40.10
2023-05-02T06:04:07.906Z,41.73
2023-05-02T06:06:36.041Z,40.50
2023-05-02T06:09:04.309Z,39.23
2023-05-02T06:11:41.132Z,41.10
2023-05-02T06:17:01.610Z,42.63
2023-05-02T06:19:31.662Z,39.13
2023-05-02T06:21:59.417Z,39.23
2023-05-02T06:24:27.089Z,40.00
2023-05-02T06:27:05.711Z,37.23
2023-05-02T06:29:33.405Z,35.80
2023-05-02T06:32:01.155Z,35.40
2023-05-02T06:34:28.834Z,33.37
2023-05-02T06:36:56.769Z,32.57
2023-05-02T06:39:24.669Z,32.83
2023-05-02T06:41:58.671Z,29.23
2023-05-02T06:44:26.338Z,31.67
2023-05-02T06:46:55.689Z,31.40
2023-05-02T06:49:26.021Z,32.37
2023-05-02T06:51:53.663Z,29.20
2023-05-02T06:54:21.864Z,28.00
2023-05-02T06:56:52.255Z,24.43
2023-05-02T06:59:20.123Z,20.63
2023-05-02T07:01:47.855Z,18.93
2023-05-02T07:04:15.697Z,17.13
2023-05-02T07:06:46.367Z,17.67
2023-05-02T07:09:17.036Z,17.43
2023-05-02T07:12:09.197Z,17.87
2023-05-02T07:14:41.717Z,18.23
2023-05-02T07:17:09.930Z,17.43
2023-05-02T07:19:40.361Z,16.43
2023-05-02T07:22:10.835Z,16.03
2023-05-02T07:24:41.866Z,15.20
2023-05-02T07:27:11.069Z,14.03
2023-05-02T07:29:39.314Z,13.50
2023-05-02T07:32:07.339Z,12.60
2023-05-02T07:34:36.527Z,11.67
2023-05-02T07:37:06.450Z,13.07
2023-05-02T07:39:34.101Z,15.37
2023-05-02T07:42:06.201Z,14.37
2023-05-02T07:44:42.141Z,15.30
2023-05-02T07:47:10.209Z,15.83
2023-05-02T07:49:46.464Z,15.90
2023-05-02T07:52:14.267Z,15.63
2023-05-02T07:54:48.934Z,16.23
2023-05-02T07:57:22.519Z,17.47
2023-05-02T07:59:55.114Z,16.20
2023-05-02T08:02:24.207Z,17.17
2023-05-02T08:04:54.274Z,16.80
2023-05-02T08:07:22.185Z,16.97
2023-05-02T08:09:49.887Z,16.60
2023-05-02T08:12:23.195Z,15.93
2023-05-02T08:14:50.890Z,15.97
2023-05-02T08:17:21.812Z,15.77
2023-05-02T08:19:51.889Z,15.20
2023-05-02T08:22:19.527Z,14.77
2023-05-02T08:24:47.150Z,17.17
2023-05-02T08:27:14.836Z,16.03
2023-05-02T08:29:42.669Z,18.17
2023-05-02T08:32:10.401Z,16.97
2023-05-02T08:34:38.124Z,17.30
2023-05-02T08:37:10.003Z,18.30
2023-05-02T08:39:37.681Z,17.67
2023-05-02T08:42:08.915Z,17.93
2023-05-02T08:44:42.096Z,17.90
2023-05-02T08:47:13.734Z,16.77
2023-05-02T08:49:42.496Z,16.83
2023-05-02T08:52:12.247Z,15.93
2023-05-02T08:54:40.635Z,17.23
2023-05-02T08:57:08.263Z,15.23
2023-05-02T08:59:39.016Z,13.13
2023-05-02T09:02:24.585Z,12.03
2023-05-02T09:04:55.951Z,12.33
2023-05-02T09:07:23.606Z,11.03
2023-05-02T09:09:51.365Z,11.40
2023-05-02T09:12:26.381Z,11.43
2023-05-02T09:15:11.557Z,10.73
2023-05-02T09:17:49.389Z,9.90
2023-05-02T09:20:17.254Z,11.27
2023-05-02T09:22:53.641Z,11.27
2023-05-02T09:25:21.679Z,10.90
2023-05-02T09:27:54.058Z,11.27
2023-05-02T09:30:26.439Z,12.13
2023-05-02T09:32:55.811Z,11.97
2023-05-02T09:35:24.010Z,10.53
2023-05-02T09:37:56.652Z,11.43
2023-05-02T09:40:25.288Z,10.50
2023-05-02T09:42:52.967Z,9.93
2023-05-02T09:45:22.426Z,8.93
2023-05-02T09:47:51.132Z,9.45
2023-05-02T09:50:48.145Z,9.48
2023-05-02T09:53:15.894Z,10.45
2023-05-02T09:55:43.550Z,10.68
2023-05-02T10:14:48.614Z,10.65
2023-05-02T10:30:36.142Z,8.63
2023-05-02T10:33:04.717Z,8.48
2023-05-02T10:35:32.524Z,7.03
2023-05-02T10:38:02.990Z,6.70
2023-05-02T10:40:31.405Z,5.82
2023-05-02T10:42:59.285Z,4.80
2023-05-02T10:45:37.425Z,5.15
2023-05-02T10:48:19.703Z,5.07
2023-05-02T10:50:55.697Z,6.22
2023-05-02T10:53:29.554Z,4.93
2023-05-02T10:56:15.697Z,5.35
2023-05-02T10:58:45.246Z,4.93
2023-05-02T11:01:32.446Z,4.20
2023-05-02T11:04:02.328Z,4.43
2023-05-02T11:06:33.937Z,4.18
2023-05-02T11:09:16.445Z,4.50
2023-05-02T11:11:44.840Z,4.22
2023-05-02T11:14:25.336Z,4.05
2023-05-02T11:16:59.731Z,4.28
2023-05-02T11:19:31.080Z,3.97
2023-05-02T11:22:19.675Z,4.57
2023-05-02T11:24:49.171Z,4.18
2023-05-02T11:27:38.038Z,5.20
2023-05-02T11:30:06.911Z,6.28
2023-05-02T11:32:44.341Z,6.13
2023-05-02T11:35:22.989Z,5.50
2023-05-02T11:38:14.686Z,5.53
2023-05-02T11:40:57.842Z,5.50
2023-05-02T11:43:30.001Z,3.67
2023-05-02T11:46:00.379Z,2.63
2023-05-02T11:48:28.378Z,2.50
2023-05-02T11:51:05.652Z,2.42
2023-05-02T11:53:33.814Z,2.08
2023-05-02T11:56:03.411Z,2.40
2023-05-02T11:58:32.965Z,2.47
2023-05-02T12:01:15.583Z,2.10
2023-05-02T12:03:45.176Z,2.30
2023-05-02T12:06:14.209Z,1.92
2023-05-02T12:08:45.278Z,2.13
2023-05-02T12:11:17.132Z,2.20
2023-05-02T12:13:49.995Z,2.40
2023-05-02T12:16:19.197Z,2.65
2023-05-02T12:18:48.099Z,3.00
2023-05-02T12:21:16.169Z,2.75
2023-05-02T12:23:44.297Z,3.33
2023-05-02T12:26:25.169Z,3.30
2023-05-02T12:28:54.920Z,3.60
2023-05-02T12:31:23.886Z,3.85
2023-05-02T12:33:55.269Z,4.00
2023-05-02T12:36:23.714Z,3.85
2023-05-02T12:38:57.253Z,3.83
2023-05-02T12:41:57.539Z,3.88
2023-05-02T12:47:51.638Z,4.32
2023-05-02T12:50:45.044Z,4.30
2023-05-02T12:53:15.842Z,4.35
2023-05-02T12:58:59.730Z,4.30
2023-05-02T13:01:38.229Z,4.85
2023-05-02T13:09:55.908Z,4.00
2023-05-02T13:12:50.793Z,3.75
2023-05-02T13:15:28.847Z,3.25
2023-05-02T13:17:56.558Z,3.40
2023-05-02T13:20:24.368Z,3.60
2023-05-02T13:23:00.128Z,2.78
2023-05-02T13:25:41.855Z,3.25
2023-05-02T13:28:12.671Z,3.22
2023-05-02T13:30:56.446Z,2.28
2023-05-02T13:33:31.965Z,2.50
2023-05-02T13:43:14.758Z,2.33
2023-05-02T13:45:48.283Z,2.40
2023-05-02T13:48:52.494Z,2.30
2023-05-02T13:51:27.338Z,1.80
2023-05-02T13:53:55.589Z,2.75
2023-05-02T13:56:23.418Z,2.50
2023-05-02T13:58:51.113Z,2.30
2023-05-02T14:01:18.853Z,2.80
2023-05-02T14:03:46.859Z,2.72
2023-05-02T14:06:14.866Z,3.03
2023-05-02T14:08:42.478Z,2.65
2023-05-02T14:11:13.024Z,3.17
2023-05-02T14:13:40.598Z,2.55
2023-05-02T14:16:08.532Z,3.10
2023-05-02T14:18:36.454Z,3.13
2023-05-02T14:21:04.596Z,2.72
2023-05-02T14:23:32.220Z,2.40
2023-05-02T14:25:59.826Z,2.70
2023-05-02T14:28:27.451Z,2.53
2023-05-02T14:30:55.529Z,2.28
2023-05-02T14:33:23.401Z,2.17
2023-05-02T14:35:51.211Z,2.30
2023-05-02T14:38:18.935Z,2.40
2023-05-02T14:40:46.682Z,2.78
2023-05-02T14:43:14.417Z,2.53
2023-05-02T14:45:42.160Z,2.70
2023-05-02T14:48:11.015Z,2.75
2023-05-02T14:50:39.784Z,2.30
2023-05-02T14:53:07.513Z,2.60
2023-05-02T14:55:38.999Z,2.10
2023-05-02T14:58:09.077Z,2.40
2023-05-02T15:00:38.289Z,3.28
2023-05-02T15:03:08.094Z,3.38
2023-05-02T15:05:36.836Z,2.47
2023-05-02T15:08:05.105Z,2.47
2023-05-02T15:10:37.583Z,2.50
2023-05-02T15:13:06.043Z,2.75
2023-05-02T15:15:33.700Z,3.53
2023-05-02T15:18:01.347Z,2.83
2023-05-02T15:20:28.986Z,3.03
2023-05-02T15:22:58.758Z,2.95
2023-05-02T15:25:27.023Z,3.28
2023-05-02T15:27:54.771Z,3.42
2023-05-02T15:30:23.498Z,3.40
2023-05-02T15:32:51.446Z,2.70
2023-05-02T15:35:19.424Z,2.90
2023-05-02T15:37:53.282Z,2.63
2023-05-02T15:40:21.152Z,3.05
2023-05-02T15:42:48.934Z,2.75
2023-05-02T15:45:16.680Z,3.20
2023-05-02T15:47:44.405Z,2.50
2023-05-02T15:50:12.497Z,3.08
2023-05-02T15:52:40.455Z,2.85
2023-05-02T15:55:08.436Z,2.50
2023-05-02T15:57:36.225Z,2.72
2023-05-02T16:00:04.447Z,2.63
2023-05-02T16:02:32.457Z,2.80
2023-05-02T16:05:00.152Z,2.60
2023-05-02T16:07:27.872Z,3.50
2023-05-02T16:09:55.620Z,2.75
2023-05-02T16:12:23.228Z,3.42
2023-05-02T16:14:50.837Z,3.10
2023-05-02T16:17:18.579Z,3.50
2023-05-02T16:19:46.236Z,3.55
2023-05-02T16:22:13.868Z,3.55
2023-05-02T16:24:41.575Z,3.00
2023-05-02T16:27:09.926Z,3.38
2023-05-02T16:29:37.564Z,2.75
2023-05-02T16:32:05.545Z,2.92
2023-05-02T16:34:33.515Z,3.13
2023-05-02T16:37:02.578Z,3.42
2023-05-02T16:39:31.504Z,3.45
2023-05-02T16:41:59.187Z,3.40
2023-05-02T16:44:26.796Z,3.17
2023-05-02T16:46:54.800Z,3.08
2023-05-02T16:49:22.463Z,3.05
2023-05-02T16:51:51.708Z,3.92
2023-05-02T16:54:19.335Z,3.42
2023-05-02T16:56:47.177Z,3.20
2023-05-02T16:59:14.983Z,3.55
2023-05-02T17:01:42.738Z,3.88
2023-05-02T17:04:10.361Z,4.15
2023-05-02T17:06:38.240Z,3.83
2023-05-02T17:09:06.255Z,4.07
2023-05-02T17:11:34.135Z,3.88
2023-05-02T17:14:02.061Z,3.42
2023-05-02T17:16:29.729Z,3.35
2023-05-02T17:18:57.414Z,3.63
2023-05-02T17:21:26.354Z,4.20
2023-05-02T17:23:54.370Z,4.43
2023-05-02T17:26:22.133Z,4.05
2023-05-02T17:28:53.461Z,4.10
2023-05-02T17:31:21.226Z,4.10
2023-05-02T17:33:48.944Z,4.07
2023-05-02T17:36:16.685Z,4.20
2023-05-02T17:38:45.082Z,3.97
2023-05-02T17:41:14.895Z,3.92
2023-05-02T17:43:43.000Z,4.13
2023-05-02T17:46:11.061Z,4.13
2023-05-02T17:48:39.016Z,4.25
2023-05-02T17:51:07.218Z,4.53
2023-05-02T17:53:36.742Z,3.72
2023-05-02T17:56:05.506Z,4.27
2023-05-02T17:58:35.378Z,5.20
2023-05-02T18:01:11.295Z,4.80
2023-05-02T18:03:39.225Z,4.37
2023-05-02T18:06:07.513Z,4.80
2023-05-02T18:08:35.370Z,4.67
2023-05-02T18:11:03.505Z,5.07
2023-05-02T18:13:32.275Z,4.10
2023-05-02T18:16:03.558Z,4.50
2023-05-02T18:18:32.895Z,4.60
2023-05-02T18:21:00.800Z,4.97
2023-05-02T18:23:28.947Z,4.80
2023-05-02T18:25:56.723Z,4.70
2023-05-02T18:28:24.495Z,4.63
2023-05-02T18:30:52.095Z,5.00
2023-05-02T18:33:19.785Z,4.87
2023-05-02T18:35:48.676Z,4.97
2023-05-02T18:38:16.699Z,3.90
2023-05-02T18:40:44.392Z,4.73
2023-05-02T18:43:12.057Z,4.60
2023-05-02T18:45:40.078Z,4.80
2023-05-02T18:48:07.781Z,4.93
2023-05-02T18:50:35.923Z,4.57
2023-05-02T18:53:03.833Z,4.80
2023-05-02T18:55:32.790Z,5.60
2023-05-02T18:58:00.469Z,5.40
2023-05-02T19:00:31.210Z,5.00
2023-05-02T19:02:58.937Z,7.30
2023-05-02T19:05:27.473Z,5.77
2023-05-02T19:07:56.329Z,5.57
2023-05-02T19:10:24.036Z,5.33
2023-05-02T19:12:57.570Z,5.07
2023-05-02T19:15:27.201Z,5.93
2023-05-02T19:18:06.159Z,5.57
2023-05-02T19:20:40.780Z,5.53
2023-05-02T19:23:19.771Z,5.40
2023-05-02T19:25:48.216Z,5.43
2023-05-02T19:28:16.781Z,5.40
2023-05-02T19:30:44.805Z,5.37
2023-05-02T19:33:12.552Z,5.10
2023-05-02T19:35:40.190Z,5.53
2023-05-02T19:38:07.845Z,5.53
2023-05-02T19:40:35.422Z,5.37
2023-05-02T19:43:03.009Z,5.07
2023-05-02T19:45:30.577Z,5.50
2023-05-02T19:47:59.172Z,5.77
2023-05-02T19:50:26.977Z,5.73
2023-05-02T19:52:54.836Z,5.33
2023-05-02T19:55:22.461Z,5.47
2023-05-02T19:57:49.991Z,5.60
2023-05-02T20:00:17.881Z,5.73
2023-05-02T20:02:45.818Z,6.20
2023-05-02T20:05:13.530Z,6.30
2023-05-02T20:07:41.473Z,6.63
2023-05-02T20:10:09.488Z,6.20
2023-05-02T20:12:37.139Z,6.40
2023-05-02T20:15:05.490Z,5.83
2023-05-02T20:17:33.170Z,6.20
2023-05-02T20:20:07.133Z,6.03
2023-05-02T20:22:35.187Z,6.80
2023-05-02T20:25:03.618Z,5.93
2023-05-02T20:27:31.977Z,6.17
2023-05-02T20:29:59.959Z,6.80
2023-05-02T20:32:27.957Z,5.80
2023-05-02T20:34:55.813Z,6.73
2023-05-02T20:37:23.625Z,6.87
2023-05-02T20:39:51.505Z,7.00
2023-05-02T20:42:23.247Z,6.60
2023-05-02T20:44:57.387Z,6.50
2023-05-02T20:47:30.078Z,6.40
2023-05-02T20:49:57.793Z,6.83
2023-05-02T20:52:25.742Z,6.33
2023-05-02T20:54:55.037Z,6.37
2023-05-02T20:57:25.232Z,7.00
2023-05-02T20:59:53.371Z,6.90
2023-05-02T21:02:21.556Z,7.23
2023-05-02T21:04:49.177Z,6.90
2023-05-02T21:07:16.766Z,7.47
2023-05-02T21:09:44.327Z,7.70
2023-05-02T21:12:12.021Z,6.80
2023-05-02T21:14:39.585Z,6.50
2023-05-02T21:17:07.321Z,5.93
2023-05-02T21:19:35.040Z,6.30
2023-05-02T21:22:02.691Z,6.60
2023-05-02T21:24:30.434Z,4.97
2023-05-02T21:26:58.519Z,5.93
2023-05-02T21:29:26.154Z,6.13
2023-05-02T21:31:54.780Z,6.50
2023-05-02T21:34:22.599Z,7.00
2023-05-02T21:36:50.318Z,6.70
2023-05-02T21:39:18.242Z,6.60
2023-05-02T21:41:45.828Z,6.23
2023-05-02T21:44:14.300Z,6.63
2023-05-02T21:46:42.036Z,6.43
2023-05-02T21:49:09.716Z,6.17
2023-05-02T21:51:39.878Z,6.70
2023-05-02T21:54:07.546Z,6.67
2023-05-02T21:56:35.382Z,7.03
2023-05-02T21:59:03.422Z,6.13
2023-05-02T22:01:31.105Z,6.03
2023-05-02T22:03:58.838Z,5.40
2023-05-02T22:06:26.733Z,6.03
2023-05-02T22:08:54.477Z,5.73
2023-05-02T22:11:24.165Z,5.73
2023-05-02T22:13:51.770Z,5.60
2023-05-02T22:16:19.559Z,6.17
2023-05-02T22:18:57.833Z,6.03
2023-05-02T22:21:25.872Z,5.87
2023-05-02T22:23:53.464Z,5.37
2023-05-02T22:26:22.431Z,5.63
2023-05-02T22:28:49.987Z,5.23
2023-05-02T22:31:17.710Z,5.27
2023-05-02T22:33:49.619Z,5.57
2023-05-02T22:36:17.913Z,5.50
2023-05-02T22:38:45.580Z,6.00
2023-05-02T22:41:13.136Z,5.50
2023-05-02T22:43:40.685Z,5.70
2023-05-02T22:46:08.387Z,5.73
2023-05-02T22:48:36.066Z,5.80
2023-05-02T22:51:03.897Z,7.80
2023-05-02T22:53:31.536Z,8.07
2023-05-02T22:55:59.159Z,8.33
2023-05-02T22:58:26.754Z,7.90
2023-05-02T23:00:54.409Z,8.43
2023-05-02T23:03:22.300Z,9.13
2023-05-02T23:05:50.952Z,8.83
2023-05-02T23:08:18.545Z,9.30
2023-05-02T23:10:46.462Z,9.27
2023-05-02T23:13:14.044Z,8.77
2023-05-02T23:15:41.784Z,8.27
2023-05-02T23:18:09.589Z,8.20
2023-05-02T23:20:37.242Z,8.10
2023-05-02T23:23:05.277Z,8.67
2023-05-02T23:25:34.720Z,8.13
2023-05-02T23:28:02.425Z,8.63
2023-05-02T23:30:31.239Z,9.10
2023-05-02T23:33:00.509Z,9.60
2023-05-02T23:35:28.165Z,8.30
2023-05-02T23:37:56.254Z,8.33
2023-05-02T23:40:23.849Z,8.40
2023-05-02T23:42:51.485Z,8.00
2023-05-02T23:45:19.808Z,8.10
2023-05-02T23:47:47.458Z,7.40
2023-05-02T23:50:15.100Z,7.13
2023-05-02T23:52:42.742Z,7.10
2023-05-02T23:55:10.891Z,6.87
2023-05-02T23:57:39.103Z,7.33
